sensor_id;sensor_type;location;lat;lon;timestamp;P1;durP1;ratioP1;P2;durP2;ratioP2
4810;SDS011;2419;51.276;6.472;2023-04-19T00:00:02;11.27;;;7.60;;
4810;SDS011;2419;51.276;6.472;2023-04-19T00:02:33;12.60;;;8.43;;
4810;SDS011;2419;51.276;6.472;2023-04-19T00:05:01;11.87;;;7.60;;
4810;SDS011;2419;51.276;6.472;2023-04-19T00:07:32;16.40;;;7.73;;
4810;SDS011;2419;51.276;6.472;2023-04-19T00:10:00;16.57;;;8.13;;
4810;SDS011;2419;51.276;6.472;2023-04-19T00:12:28;13.67;;;8.10;;
4810;SDS011;2419;51.276;6.472;2023-04-19T00:14:56;12.80;;;8.00;;
4810;SDS011;2419;51.276;6.472;2023-04-19T00:17:24;13.67;;;8.50;;
4810;SDS011;2419;51.276;6.472;2023-04-19T00:19:53;12.73;;;7.90;;
4810;SDS011;2419;51.276;6.472;2023-04-19T00:22:22;11.77;;;7.50;;
4810;SDS011;2419;51.276;6.472;2023-04-19T00:24:51;15.30;;;7.57;;
4810;SDS011;2419;51.276;6.472;2023-04-19T00:27:19;14.83;;;8.67;;
4810;SDS011;2419;51.276;6.472;2023-04-19T00:29:47;12.13;;;7.10;;
4810;SDS011;2419;51.276;6.472;2023-04-19T00:32:15;12.67;;;8.20;;
4810;SDS011;2419;51.276;6.472;2023-04-19T00:34:44;11.50;;;7.50;;
4810;SDS011;2419;51.276;6.472;2023-04-19T00:37:12;11.60;;;7.57;;
4810;SDS011;2419;51.276;6.472;2023-04-19T00:39:40;12.93;;;7.67;;
4810;SDS011;2419;51.276;6.472;2023-04-19T00:42:09;15.67;;;9.07;;
4810;SDS011;2419;51.276;6.472;2023-04-19T00:44:37;15.37;;;7.83;;
4810;SDS011;2419;51.276;6.472;2023-04-19T00:47:05;13.50;;;7.57;;
4810;SDS011;2419;51.276;6.472;2023-04-19T00:49:34;13.27;;;7.80;;
4810;SDS011;2419;51.276;6.472;2023-04-19T00:52:02;12.30;;;7.33;;
4810;SDS011;2419;51.276;6.472;2023-04-19T00:54:31;13.13;;;7.40;;
4810;SDS011;2419;51.276;6.472;2023-04-19T00:57:00;11.53;;;7.70;;
4810;SDS011;2419;51.276;6.472;2023-04-19T00:59:29;12.53;;;7.90;;
4810;SDS011;2419;51.276;6.472;2023-04-19T01:01:57;17.40;;;7.50;;
4810;SDS011;2419;51.276;6.472;2023-04-19T01:04:28;16.20;;;9.00;;
4810;SDS011;2419;51.276;6.472;2023-04-19T01:06:56;13.70;;;9.20;;
4810;SDS011;2419;51.276;6.472;2023-04-19T01:09:24;16.80;;;8.63;;
4810;SDS011;2419;51.276;6.472;2023-04-19T01:11:52;13.60;;;8.43;;
4810;SDS011;2419;51.276;6.472;2023-04-19T01:14:20;14.47;;;9.80;;
4810;SDS011;2419;51.276;6.472;2023-04-19T01:16:49;14.50;;;8.77;;
4810;SDS011;2419;51.276;6.472;2023-04-19T01:19:18;13.97;;;8.60;;
4810;SDS011;2419;51.276;6.472;2023-04-19T01:21:46;11.97;;;8.40;;
4810;SDS011;2419;51.276;6.472;2023-04-19T01:24:16;11.37;;;7.60;;
4810;SDS011;2419;51.276;6.472;2023-04-19T01:26:48;14.20;;;9.17;;
4810;SDS011;2419;51.276;6.472;2023-04-19T01:29:16;13.33;;;8.13;;
4810;SDS011;2419;51.276;6.472;2023-04-19T01:31:46;14.10;;;9.07;;
4810;SDS011;2419;51.276;6.472;2023-04-19T01:34:16;13.30;;;8.80;;
4810;SDS011;2419;51.276;6.472;2023-04-19T01:36:44;14.57;;;9.33;;
4810;SDS011;2419;51.276;6.472;2023-04-19T01:39:12;16.67;;;10.07;;
4810;SDS011;2419;51.276;6.472;2023-04-19T01:41:42;16.50;;;9.53;;
4810;SDS011;2419;51.276;6.472;2023-04-19T01:44:10;23.47;;;10.00;;
4810;SDS011;2419;51.276;6.472;2023-04-19T01:46:39;15.23;;;9.07;;
4810;SDS011;2419;51.276;6.472;2023-04-19T01:49:08;18.37;;;10.07;;
4810;SDS011;2419;51.276;6.472;2023-04-19T01:51:36;16.90;;;9.77;;
4810;SDS011;2419;51.276;6.472;2023-04-19T01:54:05;17.33;;;9.17;;
4810;SDS011;2419;51.276;6.472;2023-04-19T01:56:33;14.00;;;8.47;;
4810;SDS011;2419;51.276;6.472;2023-04-19T01:59:02;13.17;;;9.00;;
4810;SDS011;2419;51.276;6.472;2023-04-19T02:01:30;13.27;;;8.73;;
4810;SDS011;2419;51.276;6.472;2023-04-19T02:03:59;13.50;;;9.00;;
4810;SDS011;2419;51.276;6.472;2023-04-19T02:06:30;17.87;;;10.00;;
4810;SDS011;2419;51.276;6.472;2023-04-19T02:08:58;18.67;;;9.53;;
4810;SDS011;2419;51.276;6.472;2023-04-19T02:11:26;18.40;;;9.47;;
4810;SDS011;2419;51.276;6.472;2023-04-19T02:13:54;13.90;;;8.83;;
4810;SDS011;2419;51.276;6.472;2023-04-19T02:16:23;16.53;;;9.60;;
4810;SDS011;2419;51.276;6.472;2023-04-19T02:18:51;13.30;;;7.90;;
4810;SDS011;2419;51.276;6.472;2023-04-19T02:21:19;12.37;;;9.10;;
4810;SDS011;2419;51.276;6.472;2023-04-19T02:23:47;14.53;;;8.70;;
4810;SDS011;2419;51.276;6.472;2023-04-19T02:26:15;10.57;;;8.03;;
4810;SDS011;2419;51.276;6.472;2023-04-19T02:28:43;13.30;;;9.37;;
4810;SDS011;2419;51.276;6.472;2023-04-19T02:31:11;14.93;;;9.70;;
4810;SDS011;2419;51.276;6.472;2023-04-19T02:33:45;16.70;;;9.27;;
4810;SDS011;2419;51.276;6.472;2023-04-19T02:36:13;11.50;;;8.10;;
4810;SDS011;2419;51.276;6.472;2023-04-19T02:38:41;14.80;;;9.47;;
4810;SDS011;2419;51.276;6.472;2023-04-19T02:41:09;15.60;;;9.20;;
4810;SDS011;2419;51.276;6.472;2023-04-19T02:43:37;15.63;;;8.43;;
4810;SDS011;2419;51.276;6.472;2023-04-19T02:46:05;14.03;;;8.97;;
4810;SDS011;2419;51.276;6.472;2023-04-19T02:48:33;14.10;;;8.53;;
4810;SDS011;2419;51.276;6.472;2023-04-19T02:51:03;13.43;;;8.10;;
4810;SDS011;2419;51.276;6.472;2023-04-19T02:53:32;10.67;;;7.40;;
4810;SDS011;2419;51.276;6.472;2023-04-19T02:56:00;14.47;;;8.90;;
4810;SDS011;2419;51.276;6.472;2023-04-19T02:58:29;14.73;;;9.53;;
4810;SDS011;2419;51.276;6.472;2023-04-19T03:01:01;14.50;;;9.00;;
4810;SDS011;2419;51.276;6.472;2023-04-19T03:03:30;11.83;;;8.07;;
4810;SDS011;2419;51.276;6.472;2023-04-19T03:05:58;13.67;;;8.07;;
4810;SDS011;2419;51.276;6.472;2023-04-19T03:08:28;15.90;;;8.33;;
4810;SDS011;2419;51.276;6.472;2023-04-19T03:10:56;16.53;;;8.37;;
4810;SDS011;2419;51.276;6.472;2023-04-19T03:13:24;14.10;;;7.00;;
4810;SDS011;2419;51.276;6.472;2023-04-19T03:15:52;14.87;;;8.53;;
4810;SDS011;2419;51.276;6.472;2023-04-19T03:18:21;10.67;;;6.97;;
4810;SDS011;2419;51.276;6.472;2023-04-19T03:20:51;13.87;;;8.00;;
4810;SDS011;2419;51.276;6.472;2023-04-19T03:23:19;15.47;;;9.17;;
4810;SDS011;2419;51.276;6.472;2023-04-19T03:25:50;11.50;;;8.00;;
4810;SDS011;2419;51.276;6.472;2023-04-19T03:28:26;10.47;;;7.40;;
4810;SDS011;2419;51.276;6.472;2023-04-19T03:31:17;13.57;;;9.43;;
4810;SDS011;2419;51.276;6.472;2023-04-19T03:33:48;17.63;;;8.20;;
4810;SDS011;2419;51.276;6.472;2023-04-19T03:36:17;15.00;;;8.37;;
4810;SDS011;2419;51.276;6.472;2023-04-19T03:38:46;13.80;;;7.60;;
4810;SDS011;2419;51.276;6.472;2023-04-19T03:41:21;13.33;;;8.33;;
4810;SDS011;2419;51.276;6.472;2023-04-19T03:43:59;15.30;;;7.70;;
4810;SDS011;2419;51.276;6.472;2023-04-19T03:46:27;14.73;;;8.90;;
4810;SDS011;2419;51.276;6.472;2023-04-19T03:48:57;12.90;;;7.83;;
4810;SDS011;2419;51.276;6.472;2023-04-19T03:51:26;11.57;;;7.13;;
4810;SDS011;2419;51.276;6.472;2023-04-19T03:53:54;10.27;;;6.80;;
4810;SDS011;2419;51.276;6.472;2023-04-19T03:56:24;11.07;;;7.43;;
4810;SDS011;2419;51.276;6.472;2023-04-19T03:58:52;15.10;;;8.17;;
4810;SDS011;2419;51.276;6.472;2023-04-19T04:01:21;13.10;;;8.30;;
4810;SDS011;2419;51.276;6.472;2023-04-19T04:03:51;14.20;;;7.30;;
4810;SDS011;2419;51.276;6.472;2023-04-19T04:06:20;12.90;;;7.43;;
4810;SDS011;2419;51.276;6.472;2023-04-19T04:08:48;12.63;;;6.77;;
4810;SDS011;2419;51.276;6.472;2023-04-19T04:11:16;11.67;;;7.30;;
4810;SDS011;2419;51.276;6.472;2023-04-19T04:13:48;12.03;;;6.37;;
4810;SDS011;2419;51.276;6.472;2023-04-19T04:16:20;16.03;;;7.90;;
4810;SDS011;2419;51.276;6.472;2023-04-19T04:18:51;11.47;;;6.90;;
4810;SDS011;2419;51.276;6.472;2023-04-19T04:21:22;14.57;;;7.10;;
4810;SDS011;2419;51.276;6.472;2023-04-19T04:23:52;13.60;;;7.63;;
4810;SDS011;2419;51.276;6.472;2023-04-19T04:26:32;7.90;;;5.90;;
4810;SDS011;2419;51.276;6.472;2023-04-19T04:29:27;9.03;;;5.53;;
4810;SDS011;2419;51.276;6.472;2023-04-19T04:31:58;6.93;;;5.30;;
4810;SDS011;2419;51.276;6.472;2023-04-19T04:34:33;10.77;;;5.70;;
4810;SDS011;2419;51.276;6.472;2023-04-19T04:37:06;9.67;;;6.10;;
4810;SDS011;2419;51.276;6.472;2023-04-19T04:39:36;8.80;;;6.00;;
4810;SDS011;2419;51.276;6.472;2023-04-19T04:42:07;9.87;;;5.70;;
4810;SDS011;2419;51.276;6.472;2023-04-19T04:44:36;10.23;;;6.40;;
4810;SDS011;2419;51.276;6.472;2023-04-19T04:47:07;9.30;;;5.70;;
4810;SDS011;2419;51.276;6.472;2023-04-19T04:49:41;10.20;;;6.00;;
4810;SDS011;2419;51.276;6.472;2023-04-19T04:52:09;10.23;;;5.90;;
4810;SDS011;2419;51.276;6.472;2023-04-19T04:54:47;10.73;;;5.90;;
4810;SDS011;2419;51.276;6.472;2023-04-19T04:57:23;8.93;;;4.90;;
4810;SDS011;2419;51.276;6.472;2023-04-19T04:59:52;9.63;;;5.03;;
4810;SDS011;2419;51.276;6.472;2023-04-19T05:02:23;8.83;;;5.80;;
4810;SDS011;2419;51.276;6.472;2023-04-19T05:04:52;8.37;;;4.47;;
4810;SDS011;2419;51.276;6.472;2023-04-19T05:07:20;7.53;;;4.57;;
4810;SDS011;2419;51.276;6.472;2023-04-19T05:09:48;9.50;;;4.80;;
4810;SDS011;2419;51.276;6.472;2023-04-19T05:12:21;5.47;;;3.97;;
4810;SDS011;2419;51.276;6.472;2023-04-19T05:14:49;5.80;;;3.90;;
4810;SDS011;2419;51.276;6.472;2023-04-19T05:17:20;5.13;;;3.90;;
4810;SDS011;2419;51.276;6.472;2023-04-19T05:19:48;6.10;;;3.83;;
4810;SDS011;2419;51.276;6.472;2023-04-19T05:22:16;5.20;;;3.90;;
4810;SDS011;2419;51.276;6.472;2023-04-19T05:24:44;5.13;;;3.50;;
4810;SDS011;2419;51.276;6.472;2023-04-19T05:27:12;5.70;;;3.80;;
4810;SDS011;2419;51.276;6.472;2023-04-19T05:29:41;3.60;;;3.00;;
4810;SDS011;2419;51.276;6.472;2023-04-19T05:32:09;5.17;;;3.37;;
4810;SDS011;2419;51.276;6.472;2023-04-19T05:34:52;3.90;;;2.97;;
4810;SDS011;2419;51.276;6.472;2023-04-19T05:37:21;5.10;;;3.33;;
4810;SDS011;2419;51.276;6.472;2023-04-19T05:39:50;5.27;;;3.20;;
4810;SDS011;2419;51.276;6.472;2023-04-19T05:42:18;5.47;;;2.80;;
4810;SDS011;2419;51.276;6.472;2023-04-19T05:44:46;3.57;;;2.93;;
4810;SDS011;2419;51.276;6.472;2023-04-19T05:47:15;5.27;;;3.20;;
4810;SDS011;2419;51.276;6.472;2023-04-19T05:49:57;6.20;;;3.53;;
4810;SDS011;2419;51.276;6.472;2023-04-19T05:52:32;6.13;;;3.80;;
4810;SDS011;2419;51.276;6.472;2023-04-19T05:55:02;6.43;;;3.50;;
4810;SDS011;2419;51.276;6.472;2023-04-19T05:57:32;5.57;;;3.50;;
4810;SDS011;2419;51.276;6.472;2023-04-19T06:00:01;8.27;;;4.20;;
4810;SDS011;2419;51.276;6.472;2023-04-19T06:02:38;6.13;;;3.50;;
4810;SDS011;2419;51.276;6.472;2023-04-19T06:05:11;5.07;;;2.63;;
4810;SDS011;2419;51.276;6.472;2023-04-19T06:07:40;4.97;;;3.13;;
4810;SDS011;2419;51.276;6.472;2023-04-19T06:10:20;4.50;;;3.30;;
4810;SDS011;2419;51.276;6.472;2023-04-19T06:12:48;4.17;;;2.90;;
4810;SDS011;2419;51.276;6.472;2023-04-19T06:15:16;5.50;;;3.20;;
4810;SDS011;2419;51.276;6.472;2023-04-19T06:17:45;5.30;;;3.23;;
4810;SDS011;2419;51.276;6.472;2023-04-19T06:20:14;7.50;;;3.83;;
4810;SDS011;2419;51.276;6.472;2023-04-19T06:22:43;6.23;;;4.40;;
4810;SDS011;2419;51.276;6.472;2023-04-19T06:25:11;5.67;;;4.03;;
4810;SDS011;2419;51.276;6.472;2023-04-19T06:27:40;5.23;;;3.90;;
4810;SDS011;2419;51.276;6.472;2023-04-19T06:30:08;4.70;;;3.73;;
4810;SDS011;2419;51.276;6.472;2023-04-19T06:32:36;7.23;;;4.13;;
4810;SDS011;2419;51.276;6.472;2023-04-19T06:35:05;8.00;;;4.60;;
4810;SDS011;2419;51.276;6.472;2023-04-19T06:37:35;5.50;;;3.70;;
4810;SDS011;2419;51.276;6.472;2023-04-19T06:40:03;6.70;;;3.70;;
4810;SDS011;2419;51.276;6.472;2023-04-19T06:42:34;5.60;;;4.00;;
4810;SDS011;2419;51.276;6.472;2023-04-19T06:45:05;8.93;;;3.63;;
4810;SDS011;2419;51.276;6.472;2023-04-19T06:47:34;6.73;;;4.00;;
4810;SDS011;2419;51.276;6.472;2023-04-19T06:50:02;7.60;;;3.90;;
4810;SDS011;2419;51.276;6.472;2023-04-19T06:52:30;5.53;;;3.93;;
4810;SDS011;2419;51.276;6.472;2023-04-19T06:55:00;8.03;;;3.90;;
4810;SDS011;2419;51.276;6.472;2023-04-19T06:57:31;6.40;;;4.03;;
4810;SDS011;2419;51.276;6.472;2023-04-19T07:00:03;5.90;;;4.13;;
4810;SDS011;2419;51.276;6.472;2023-04-19T07:02:33;6.37;;;4.10;;
4810;SDS011;2419;51.276;6.472;2023-04-19T07:05:01;7.13;;;4.63;;
4810;SDS011;2419;51.276;6.472;2023-04-19T07:07:29;5.37;;;3.90;;
4810;SDS011;2419;51.276;6.472;2023-04-19T07:09:59;6.97;;;4.17;;
4810;SDS011;2419;51.276;6.472;2023-04-19T07:12:27;5.53;;;3.67;;
4810;SDS011;2419;51.276;6.472;2023-04-19T07:14:55;6.77;;;4.27;;
4810;SDS011;2419;51.276;6.472;2023-04-19T07:17:23;5.90;;;3.80;;
4810;SDS011;2419;51.276;6.472;2023-04-19T07:19:52;8.60;;;4.03;;
4810;SDS011;2419;51.276;6.472;2023-04-19T07:22:20;6.93;;;4.10;;
4810;SDS011;2419;51.276;6.472;2023-04-19T07:24:48;7.30;;;3.70;;
4810;SDS011;2419;51.276;6.472;2023-04-19T07:27:18;6.17;;;3.57;;
4810;SDS011;2419;51.276;6.472;2023-04-19T07:29:46;5.30;;;3.27;;
4810;SDS011;2419;51.276;6.472;2023-04-19T07:32:14;6.10;;;3.50;;
4810;SDS011;2419;51.276;6.472;2023-04-19T07:34:42;8.40;;;4.13;;
4810;SDS011;2419;51.276;6.472;2023-04-19T07:37:11;5.90;;;3.30;;
4810;SDS011;2419;51.276;6.472;2023-04-19T07:39:39;6.40;;;3.20;;
4810;SDS011;2419;51.276;6.472;2023-04-19T07:42:07;4.90;;;3.50;;
4810;SDS011;2419;51.276;6.472;2023-04-19T07:44:36;10.93;;;4.20;;
4810;SDS011;2419;51.276;6.472;2023-04-19T07:47:04;11.63;;;3.90;;
4810;SDS011;2419;51.276;6.472;2023-04-19T07:49:33;4.97;;;3.40;;
4810;SDS011;2419;51.276;6.472;2023-04-19T07:52:01;4.10;;;3.50;;
4810;SDS011;2419;51.276;6.472;2023-04-19T07:54:29;8.17;;;3.70;;
4810;SDS011;2419;51.276;6.472;2023-04-19T07:56:57;4.77;;;3.50;;
4810;SDS011;2419;51.276;6.472;2023-04-19T07:59:25;9.93;;;3.43;;
4810;SDS011;2419;51.276;6.472;2023-04-19T08:01:55;7.17;;;3.10;;
4810;SDS011;2419;51.276;6.472;2023-04-19T08:04:23;5.30;;;3.97;;
4810;SDS011;2419;51.276;6.472;2023-04-19T08:06:52;7.57;;;4.13;;
4810;SDS011;2419;51.276;6.472;2023-04-19T08:09:21;4.83;;;3.30;;
4810;SDS011;2419;51.276;6.472;2023-04-19T08:11:49;5.30;;;3.53;;
4810;SDS011;2419;51.276;6.472;2023-04-19T08:14:18;5.90;;;3.87;;
4810;SDS011;2419;51.276;6.472;2023-04-19T08:17:04;6.60;;;4.10;;
4810;SDS011;2419;51.276;6.472;2023-04-19T08:19:51;4.20;;;3.40;;
4810;SDS011;2419;51.276;6.472;2023-04-19T08:22:19;3.73;;;3.27;;
4810;SDS011;2419;51.276;6.472;2023-04-19T08:24:48;16.43;;;3.80;;
4810;SDS011;2419;51.276;6.472;2023-04-19T08:27:17;4.83;;;3.33;;
4810;SDS011;2419;51.276;6.472;2023-04-19T08:29:46;6.70;;;3.63;;
4810;SDS011;2419;51.276;6.472;2023-04-19T08:32:15;7.20;;;2.90;;
4810;SDS011;2419;51.276;6.472;2023-04-19T08:34:43;5.37;;;3.40;;
4810;SDS011;2419;51.276;6.472;2023-04-19T08:37:12;5.70;;;3.87;;
4810;SDS011;2419;51.276;6.472;2023-04-19T08:39:41;5.80;;;3.67;;
4810;SDS011;2419;51.276;6.472;2023-04-19T08:42:09;9.80;;;3.60;;
4810;SDS011;2419;51.276;6.472;2023-04-19T08:44:57;5.57;;;3.20;;
4810;SDS011;2419;51.276;6.472;2023-04-19T08:47:49;4.90;;;3.00;;
4810;SDS011;2419;51.276;6.472;2023-04-19T08:50:26;5.57;;;3.40;;
4810;SDS011;2419;51.276;6.472;2023-04-19T08:52:58;4.53;;;3.07;;
4810;SDS011;2419;51.276;6.472;2023-04-19T08:55:45;6.90;;;2.90;;
4810;SDS011;2419;51.276;6.472;2023-04-19T08:58:17;7.80;;;3.30;;
4810;SDS011;2419;51.276;6.472;2023-04-19T09:01:02;6.53;;;3.00;;
4810;SDS011;2419;51.276;6.472;2023-04-19T09:03:33;5.33;;;2.97;;
4810;SDS011;2419;51.276;6.472;2023-04-19T09:06:21;4.83;;;2.63;;
4810;SDS011;2419;51.276;6.472;2023-04-19T09:08:49;6.50;;;3.57;;
4810;SDS011;2419;51.276;6.472;2023-04-19T09:11:30;3.50;;;2.87;;
4810;SDS011;2419;51.276;6.472;2023-04-19T09:14:07;7.23;;;3.07;;
4810;SDS011;2419;51.276;6.472;2023-04-19T09:16:35;5.90;;;2.73;;
4810;SDS011;2419;51.276;6.472;2023-04-19T09:19:05;3.77;;;2.90;;
4810;SDS011;2419;51.276;6.472;2023-04-19T09:21:48;3.83;;;2.23;;
4810;SDS011;2419;51.276;6.472;2023-04-19T09:24:18;3.57;;;2.40;;
4810;SDS011;2419;51.276;6.472;2023-04-19T09:26:52;3.77;;;2.37;;
4810;SDS011;2419;51.276;6.472;2023-04-19T09:29:23;3.33;;;2.23;;
4810;SDS011;2419;51.276;6.472;2023-04-19T09:31:55;3.57;;;2.50;;
4810;SDS011;2419;51.276;6.472;2023-04-19T09:34:26;5.30;;;2.57;;
4810;SDS011;2419;51.276;6.472;2023-04-19T09:36:55;2.50;;;2.30;;
4810;SDS011;2419;51.276;6.472;2023-04-19T09:39:37;2.60;;;2.23;;
4810;SDS011;2419;51.276;6.472;2023-04-19T09:42:05;3.90;;;2.23;;
4810;SDS011;2419;51.276;6.472;2023-04-19T09:44:33;6.33;;;2.67;;
4810;SDS011;2419;51.276;6.472;2023-04-19T09:47:10;4.00;;;1.97;;
4810;SDS011;2419;51.276;6.472;2023-04-19T09:50:03;3.60;;;2.23;;
4810;SDS011;2419;51.276;6.472;2023-04-19T09:52:47;7.90;;;3.03;;
4810;SDS011;2419;51.276;6.472;2023-04-19T09:55:16;6.53;;;2.57;;
4810;SDS011;2419;51.276;6.472;2023-04-19T09:57:48;3.80;;;2.33;;
4810;SDS011;2419;51.276;6.472;2023-04-19T10:00:16;2.93;;;2.30;;
4810;SDS011;2419;51.276;6.472;2023-04-19T10:02:46;4.40;;;2.20;;
4810;SDS011;2419;51.276;6.472;2023-04-19T10:05:25;7.77;;;3.17;;
4810;SDS011;2419;51.276;6.472;2023-04-19T10:07:53;7.60;;;2.97;;
4810;SDS011;2419;51.276;6.472;2023-04-19T10:10:25;2.83;;;1.97;;
4810;SDS011;2419;51.276;6.472;2023-04-19T10:13:08;5.80;;;2.73;;
4810;SDS011;2419;51.276;6.472;2023-04-19T10:15:41;2.30;;;2.00;;
4810;SDS011;2419;51.276;6.472;2023-04-19T10:18:19;3.03;;;2.30;;
4810;SDS011;2419;51.276;6.472;2023-04-19T10:20:50;2.70;;;1.90;;
4810;SDS011;2419;51.276;6.472;2023-04-19T10:23:22;9.80;;;2.63;;
4810;SDS011;2419;51.276;6.472;2023-04-19T10:25:54;3.20;;;1.60;;
4810;SDS011;2419;51.276;6.472;2023-04-19T10:28:22;3.40;;;1.80;;
4810;SDS011;2419;51.276;6.472;2023-04-19T10:30:51;6.63;;;1.30;;
4810;SDS011;2419;51.276;6.472;2023-04-19T10:33:24;1.87;;;1.50;;
4810;SDS011;2419;51.276;6.472;2023-04-19T10:35:58;8.70;;;2.00;;
4810;SDS011;2419;51.276;6.472;2023-04-19T10:38:36;2.50;;;1.97;;
4810;SDS011;2419;51.276;6.472;2023-04-19T10:41:05;2.40;;;1.67;;
4810;SDS011;2419;51.276;6.472;2023-04-19T10:43:43;2.90;;;1.73;;
4810;SDS011;2419;51.276;6.472;2023-04-19T10:46:13;4.10;;;1.80;;
4810;SDS011;2419;51.276;6.472;2023-04-19T10:48:49;2.00;;;1.73;;
4810;SDS011;2419;51.276;6.472;2023-04-19T10:51:25;6.73;;;1.73;;
4810;SDS011;2419;51.276;6.472;2023-04-19T10:53:55;4.37;;;1.40;;
4810;SDS011;2419;51.276;6.472;2023-04-19T10:59:25;2.10;;;1.80;;
4810;SDS011;2419;51.276;6.472;2023-04-19T11:01:56;1.30;;;1.20;;
4810;SDS011;2419;51.276;6.472;2023-04-19T11:07:27;4.90;;;1.93;;
4810;SDS011;2419;51.276;6.472;2023-04-19T11:10:02;2.20;;;1.80;;
4810;SDS011;2419;51.276;6.472;2023-04-19T11:12:31;3.10;;;1.90;;
4810;SDS011;2419;51.276;6.472;2023-04-19T11:15:00;4.53;;;2.43;;
4810;SDS011;2419;51.276;6.472;2023-04-19T11:17:29;1.83;;;1.70;;
4810;SDS011;2419;51.276;6.472;2023-04-19T11:19:58;3.47;;;1.87;;
4810;SDS011;2419;51.276;6.472;2023-04-19T11:22:32;2.10;;;1.90;;
4810;SDS011;2419;51.276;6.472;2023-04-19T11:25:05;2.67;;;2.00;;
4810;SDS011;2419;51.276;6.472;2023-04-19T11:27:38;3.93;;;2.57;;
4810;SDS011;2419;51.276;6.472;2023-04-19T11:30:08;6.00;;;2.00;;
4810;SDS011;2419;51.276;6.472;2023-04-19T11:32:43;3.20;;;2.30;;
4810;SDS011;2419;51.276;6.472;2023-04-19T11:35:14;4.10;;;2.17;;
4810;SDS011;2419;51.276;6.472;2023-04-19T11:37:48;3.20;;;1.90;;
4810;SDS011;2419;51.276;6.472;2023-04-19T11:40:17;2.30;;;2.10;;
4810;SDS011;2419;51.276;6.472;2023-04-19T11:42:54;3.63;;;2.33;;
4810;SDS011;2419;51.276;6.472;2023-04-19T11:45:26;4.07;;;2.03;;
4810;SDS011;2419;51.276;6.472;2023-04-19T11:48:00;4.03;;;2.40;;
4810;SDS011;2419;51.276;6.472;2023-04-19T11:50:31;3.83;;;2.73;;
4810;SDS011;2419;51.276;6.472;2023-04-19T11:53:12;2.80;;;2.47;;
4810;SDS011;2419;51.276;6.472;2023-04-19T11:55:42;5.20;;;2.87;;
4810;SDS011;2419;51.276;6.472;2023-04-19T11:58:22;2.73;;;2.20;;
4810;SDS011;2419;51.276;6.472;2023-04-19T12:00:52;2.77;;;2.47;;
4810;SDS011;2419;51.276;6.472;2023-04-19T12:03:20;3.30;;;2.00;;
4810;SDS011;2419;51.276;6.472;2023-04-19T12:05:52;3.73;;;2.40;;
4810;SDS011;2419;51.276;6.472;2023-04-19T12:08:33;3.27;;;2.40;;
4810;SDS011;2419;51.276;6.472;2023-04-19T12:11:03;4.87;;;2.90;;
4810;SDS011;2419;51.276;6.472;2023-04-19T12:13:32;4.03;;;2.70;;
4810;SDS011;2419;51.276;6.472;2023-04-19T12:16:03;2.57;;;2.00;;
4810;SDS011;2419;51.276;6.472;2023-04-19T12:18:41;2.43;;;2.07;;
4810;SDS011;2419;51.276;6.472;2023-04-19T12:21:26;4.90;;;1.93;;
4810;SDS011;2419;51.276;6.472;2023-04-19T12:23:58;4.30;;;2.23;;
4810;SDS011;2419;51.276;6.472;2023-04-19T12:26:28;4.00;;;2.10;;
4810;SDS011;2419;51.276;6.472;2023-04-19T12:28:58;1.83;;;1.70;;
4810;SDS011;2419;51.276;6.472;2023-04-19T12:31:29;3.07;;;2.33;;
4810;SDS011;2419;51.276;6.472;2023-04-19T12:33:58;2.10;;;1.77;;
4810;SDS011;2419;51.276;6.472;2023-04-19T12:36:26;6.40;;;2.20;;
4810;SDS011;2419;51.276;6.472;2023-04-19T12:38:55;2.40;;;2.20;;
4810;SDS011;2419;51.276;6.472;2023-04-19T12:41:25;2.80;;;2.23;;
4810;SDS011;2419;51.276;6.472;2023-04-19T12:43:53;2.40;;;2.20;;
4810;SDS011;2419;51.276;6.472;2023-04-19T12:46:21;8.33;;;2.40;;
4810;SDS011;2419;51.276;6.472;2023-04-19T12:48:49;3.80;;;1.90;;
4810;SDS011;2419;51.276;6.472;2023-04-19T12:51:17;7.03;;;2.20;;
4810;SDS011;2419;51.276;6.472;2023-04-19T12:53:46;2.13;;;1.70;;
4810;SDS011;2419;51.276;6.472;2023-04-19T12:56:16;4.23;;;2.57;;
4810;SDS011;2419;51.276;6.472;2023-04-19T12:58:44;3.60;;;2.50;;
4810;SDS011;2419;51.276;6.472;2023-04-19T13:01:12;3.90;;;2.80;;
4810;SDS011;2419;51.276;6.472;2023-04-19T13:03:40;4.07;;;2.47;;
4810;SDS011;2419;51.276;6.472;2023-04-19T13:06:09;3.03;;;2.33;;
4810;SDS011;2419;51.276;6.472;2023-04-19T13:08:38;2.60;;;2.40;;
4810;SDS011;2419;51.276;6.472;2023-04-19T13:11:12;3.13;;;2.53;;
4810;SDS011;2419;51.276;6.472;2023-04-19T13:13:42;5.30;;;2.10;;
4810;SDS011;2419;51.276;6.472;2023-04-19T13:16:10;12.57;;;2.30;;
4810;SDS011;2419;51.276;6.472;2023-04-19T13:18:38;2.20;;;1.87;;
4810;SDS011;2419;51.276;6.472;2023-04-19T13:21:06;3.20;;;2.40;;
4810;SDS011;2419;51.276;6.472;2023-04-19T13:23:34;5.00;;;2.47;;
4810;SDS011;2419;51.276;6.472;2023-04-19T13:26:02;3.67;;;2.20;;
4810;SDS011;2419;51.276;6.472;2023-04-19T13:28:30;3.47;;;2.63;;
4810;SDS011;2419;51.276;6.472;2023-04-19T13:31:02;3.27;;;2.60;;
4810;SDS011;2419;51.276;6.472;2023-04-19T13:33:31;2.50;;;1.87;;
4810;SDS011;2419;51.276;6.472;2023-04-19T13:35:59;3.23;;;2.87;;
4810;SDS011;2419;51.276;6.472;2023-04-19T13:38:27;4.07;;;2.77;;
4810;SDS011;2419;51.276;6.472;2023-04-19T13:40:55;3.60;;;2.90;;
4810;SDS011;2419;51.276;6.472;2023-04-19T13:43:23;5.57;;;3.13;;
4810;SDS011;2419;51.276;6.472;2023-04-19T13:45:51;3.03;;;2.53;;
4810;SDS011;2419;51.276;6.472;2023-04-19T13:48:20;3.73;;;2.40;;
4810;SDS011;2419;51.276;6.472;2023-04-19T13:50:48;6.70;;;2.73;;
4810;SDS011;2419;51.276;6.472;2023-04-19T13:53:17;2.50;;;2.20;;
4810;SDS011;2419;51.276;6.472;2023-04-19T13:55:45;3.87;;;2.70;;
4810;SDS011;2419;51.276;6.472;2023-04-19T13:58:13;4.73;;;2.17;;
4810;SDS011;2419;51.276;6.472;2023-04-19T14:00:41;4.90;;;2.60;;
4810;SDS011;2419;51.276;6.472;2023-04-19T14:03:09;4.10;;;2.47;;
4810;SDS011;2419;51.276;6.472;2023-04-19T14:05:39;4.50;;;2.33;;
4810;SDS011;2419;51.276;6.472;2023-04-19T14:08:07;3.13;;;2.57;;
4810;SDS011;2419;51.276;6.472;2023-04-19T14:10:35;3.93;;;2.63;;
4810;SDS011;2419;51.276;6.472;2023-04-19T14:13:03;6.40;;;3.27;;
4810;SDS011;2419;51.276;6.472;2023-04-19T14:15:32;4.67;;;2.70;;
4810;SDS011;2419;51.276;6.472;2023-04-19T14:18:00;2.37;;;2.00;;
4810;SDS011;2419;51.276;6.472;2023-04-19T14:20:28;3.30;;;2.20;;
4810;SDS011;2419;51.276;6.472;2023-04-19T14:22:58;2.93;;;2.57;;
4810;SDS011;2419;51.276;6.472;2023-04-19T14:25:26;2.77;;;2.57;;
4810;SDS011;2419;51.276;6.472;2023-04-19T14:27:54;5.80;;;2.67;;
4810;SDS011;2419;51.276;6.472;2023-04-19T14:30:22;3.50;;;2.23;;
4810;SDS011;2419;51.276;6.472;2023-04-19T14:32:51;4.20;;;2.90;;
4810;SDS011;2419;51.276;6.472;2023-04-19T14:35:19;4.80;;;1.83;;
4810;SDS011;2419;51.276;6.472;2023-04-19T14:37:47;2.73;;;2.27;;
4810;SDS011;2419;51.276;6.472;2023-04-19T14:40:17;3.37;;;2.60;;
4810;SDS011;2419;51.276;6.472;2023-04-19T14:42:45;3.27;;;2.30;;
4810;SDS011;2419;51.276;6.472;2023-04-19T14:45:13;3.77;;;2.20;;
4810;SDS011;2419;51.276;6.472;2023-04-19T14:47:41;6.10;;;2.33;;
4810;SDS011;2419;51.276;6.472;2023-04-19T14:50:09;3.10;;;2.00;;
4810;SDS011;2419;51.276;6.472;2023-04-19T14:52:38;6.10;;;2.33;;
4810;SDS011;2419;51.276;6.472;2023-04-19T14:55:06;3.23;;;2.23;;
4810;SDS011;2419;51.276;6.472;2023-04-19T14:57:36;2.97;;;2.30;;
4810;SDS011;2419;51.276;6.472;2023-04-19T15:00:05;3.10;;;2.10;;
4810;SDS011;2419;51.276;6.472;2023-04-19T15:02:34;2.53;;;2.30;;
4810;SDS011;2419;51.276;6.472;2023-04-19T15:05:03;2.73;;;2.10;;
4810;SDS011;2419;51.276;6.472;2023-04-19T15:07:31;3.83;;;2.17;;
4810;SDS011;2419;51.276;6.472;2023-04-19T15:09:59;3.17;;;2.20;;
4810;SDS011;2419;51.276;6.472;2023-04-19T15:12:27;2.20;;;1.70;;
4810;SDS011;2419;51.276;6.472;2023-04-19T15:14:57;3.40;;;2.07;;
4810;SDS011;2419;51.276;6.472;2023-04-19T15:17:25;2.37;;;2.13;;
4810;SDS011;2419;51.276;6.472;2023-04-19T15:19:53;4.33;;;2.40;;
4810;SDS011;2419;51.276;6.472;2023-04-19T15:22:23;2.77;;;2.20;;
4810;SDS011;2419;51.276;6.472;2023-04-19T15:24:51;6.77;;;2.50;;
4810;SDS011;2419;51.276;6.472;2023-04-19T15:27:19;2.17;;;1.90;;
4810;SDS011;2419;51.276;6.472;2023-04-19T15:29:47;2.00;;;1.80;;
4810;SDS011;2419;51.276;6.472;2023-04-19T15:32:17;2.20;;;2.00;;
4810;SDS011;2419;51.276;6.472;2023-04-19T15:34:45;2.40;;;1.63;;